createdAt,value
2023-03-22T00:01:37.655Z,2.88
2023-03-22T00:04:24.549Z,3.40
2023-03-22T00:07:11.435Z,3.05
2023-03-22T00:09:58.223Z,3.00
2023-03-22T00:12:45.109Z,2.95
2023-03-22T00:15:32.399Z,3.08
2023-03-22T00:18:19.455Z,3.05
2023-03-22T00:21:13.728Z,3.30
2023-03-22T00:24:00.584Z,3.40
2023-03-22T00:26:47.526Z,3.20
2023-03-22T00:29:34.364Z,3.42
2023-03-22T00:32:21.233Z,3.42
2023-03-22T00:35:09.488Z,3.28
2023-03-22T00:37:56.368Z,3.30
2023-03-22T00:40:43.208Z,3.45
2023-03-22T00:43:30.200Z,3.10
2023-03-22T00:46:19.922Z,3.38
2023-03-22T00:49:06.830Z,3.03
2023-03-22T00:51:53.963Z,3.35
2023-03-22T00:54:40.978Z,3.58
2023-03-22T00:57:27.794Z,3.53
2023-03-22T01:00:16.385Z,3.50
2023-03-22T01:03:05.081Z,3.28
2023-03-22T01:05:55.553Z,3.53
2023-03-22T01:08:42.469Z,3.25
2023-03-22T01:11:29.307Z,3.50
2023-03-22T01:14:16.283Z,3.35
2023-03-22T01:17:03.559Z,3.03
2023-03-22T01:19:50.405Z,3.25
2023-03-22T01:22:37.364Z,2.80
2023-03-22T01:25:24.665Z,2.88
2023-03-22T01:28:11.537Z,2.50
2023-03-22T01:31:01.809Z,3.17
2023-03-22T01:33:48.761Z,2.92
2023-03-22T01:36:36.763Z,2.97
2023-03-22T01:39:23.622Z,3.40
2023-03-22T01:42:14.300Z,3.08
2023-03-22T01:45:30.416Z,3.08
2023-03-22T01:48:19.024Z,2.95
2023-03-22T01:51:26.384Z,2.97
2023-03-22T01:54:18.117Z,2.85
2023-03-22T01:57:04.959Z,3.13
2023-03-22T01:59:51.852Z,2.97
2023-03-22T02:02:38.885Z,3.00
2023-03-22T02:05:25.982Z,2.90
2023-03-22T02:08:15.147Z,2.97
2023-03-22T02:11:03.854Z,3.05
2023-03-22T02:14:12.537Z,3.05
2023-03-22T02:17:27.712Z,2.80
2023-03-22T02:20:49.702Z,2.80
2023-03-22T02:24:05.541Z,3.03
2023-03-22T02:27:16.305Z,2.85
2023-03-22T02:30:24.906Z,2.88
2023-03-22T02:33:11.730Z,2.90
2023-03-22T02:36:22.773Z,3.30
2023-03-22T02:39:16.532Z,3.03
2023-03-22T02:42:28.628Z,2.72
2023-03-22T02:45:23.425Z,2.92
2023-03-22T02:48:18.883Z,2.90
2023-03-22T02:51:11.820Z,3.40
2023-03-22T02:54:21.766Z,2.97
2023-03-22T02:57:15.716Z,2.95
2023-03-22T03:00:10.503Z,2.90
2023-03-22T03:03:00.229Z,3.13
2023-03-22T03:05:49.916Z,2.70
2023-03-22T03:08:37.880Z,3.08
2023-03-22T03:11:25.305Z,3.22
2023-03-22T03:14:25.991Z,3.13
2023-03-22T03:17:18.890Z,2.88
2023-03-22T03:20:24.719Z,3.28
2023-03-22T03:23:18.102Z,3.03
2023-03-22T03:26:28.737Z,2.67
2023-03-22T03:29:34.271Z,2.92
2023-03-22T03:32:31.572Z,2.70
2023-03-22T03:35:25.583Z,3.15
2023-03-22T03:38:17.533Z,3.05
2023-03-22T03:41:07.292Z,3.53
2023-03-22T03:43:56.133Z,3.20
2023-03-22T03:46:44.458Z,3.03
2023-03-22T03:49:31.304Z,2.80
2023-03-22T03:52:18.440Z,2.75
2023-03-22T03:55:06.204Z,3.40
2023-03-22T03:57:53.093Z,2.85
2023-03-22T04:00:40.335Z,2.92
2023-03-22T04:03:27.337Z,2.53
2023-03-22T04:06:14.405Z,2.90
2023-03-22T04:09:01.754Z,3.25
2023-03-22T04:11:48.637Z,2.72
2023-03-22T04:14:35.732Z,3.22
2023-03-22T04:17:23.033Z,3.03
2023-03-22T04:20:11.220Z,3.50
2023-03-22T04:23:00.264Z,3.30
2023-03-22T04:28:37.090Z,2.80
2023-03-22T04:31:27.144Z,3.10
2023-03-22T04:34:14.059Z,3.00
2023-03-22T04:37:02.693Z,3.20
2023-03-22T04:39:49.610Z,2.97
2023-03-22T04:42:36.573Z,3.05
2023-03-22T04:45:24.028Z,3.10
2023-03-22T04:48:11.381Z,3.33
2023-03-22T04:50:58.351Z,3.50
2023-03-22T04:53:45.203Z,3.22
2023-03-22T04:56:32.315Z,3.30
2023-03-22T04:59:20.331Z,3.22
2023-03-22T05:02:07.276Z,3.45
2023-03-22T05:04:54.140Z,3.33
2023-03-22T05:07:41.544Z,3.30
2023-03-22T05:10:28.400Z,3.20
2023-03-22T05:13:15.410Z,3.80
2023-03-22T05:16:02.335Z,3.47
2023-03-22T05:18:50.057Z,3.70
2023-03-22T05:21:40.315Z,3.92
2023-03-22T05:24:27.668Z,3.35
2023-03-22T05:27:14.524Z,3.72
2023-03-22T05:30:02.233Z,3.72
2023-03-22T05:32:49.630Z,3.45
2023-03-22T05:35:39.263Z,3.58
2023-03-22T05:38:26.238Z,3.72
2023-03-22T05:41:13.760Z,3.80
2023-03-22T05:44:01.080Z,3.90
2023-03-22T05:46:48.017Z,3.85
2023-03-22T05:49:34.968Z,3.63
2023-03-22T05:52:21.858Z,3.75
2023-03-22T05:55:09.299Z,3.58
2023-03-22T05:57:56.633Z,3.60
2023-03-22T06:00:43.940Z,4.00
2023-03-22T06:03:31.276Z,3.65
2023-03-22T06:06:18.154Z,3.65
2023-03-22T06:09:16.242Z,3.72
2023-03-22T06:14:50.823Z,3.88
2023-03-22T06:17:37.879Z,3.80
2023-03-22T06:20:25.678Z,3.92
2023-03-22T06:23:12.543Z,3.88
2023-03-22T06:25:59.596Z,4.97
2023-03-22T06:28:47.022Z,5.22
2023-03-22T06:31:33.866Z,5.70
2023-03-22T06:34:20.744Z,5.45
2023-03-22T06:37:07.558Z,5.60
2023-03-22T06:39:54.450Z,5.60
2023-03-22T06:42:41.321Z,6.13
2023-03-22T06:45:33.546Z,5.65
2023-03-22T06:48:20.675Z,5.60
2023-03-22T06:51:07.631Z,5.28
2023-03-22T06:53:54.564Z,5.53
2023-03-22T06:56:41.560Z,6.00
2023-03-22T06:59:28.471Z,5.72
2023-03-22T07:02:15.462Z,5.78
2023-03-22T07:05:02.356Z,5.82
2023-03-22T07:07:49.293Z,5.63
2023-03-22T07:10:36.146Z,5.40
2023-03-22T07:13:23.025Z,5.70
2023-03-22T07:16:10.321Z,5.70
2023-03-22T07:18:57.490Z,5.65
2023-03-22T07:21:44.459Z,5.45
2023-03-22T07:24:31.467Z,5.22
2023-03-22T07:27:19.156Z,5.70
2023-03-22T07:30:09.026Z,5.70
2023-03-22T07:32:56.573Z,5.82
2023-03-22T07:35:43.487Z,5.35
2023-03-22T07:38:30.521Z,5.45
2023-03-22T07:41:18.368Z,5.72
2023-03-22T07:44:17.381Z,5.63
2023-03-22T07:47:05.405Z,5.10
2023-03-22T07:49:52.483Z,5.20
2023-03-22T07:52:40.558Z,5.30
2023-03-22T07:55:27.437Z,5.60
2023-03-22T07:58:15.064Z,5.22
2023-03-22T08:01:09.087Z,5.20
2023-03-22T08:03:55.965Z,5.35
2023-03-22T08:06:42.847Z,5.18
2023-03-22T08:09:29.758Z,5.47
2023-03-22T08:12:16.843Z,5.43
2023-03-22T08:15:04.060Z,5.93
2023-03-22T08:17:50.972Z,5.50
2023-03-22T08:20:38.342Z,5.40
2023-03-22T08:23:40.536Z,5.70
2023-03-22T08:26:28.372Z,5.55
2023-03-22T08:29:16.109Z,5.22
2023-03-22T08:32:04.400Z,5.43
2023-03-22T08:34:52.793Z,5.00
2023-03-22T08:37:40.337Z,6.03
2023-03-22T08:40:27.376Z,5.60
2023-03-22T08:43:14.316Z,5.03
2023-03-22T08:46:01.171Z,5.30
2023-03-22T08:48:50.812Z,5.50
2023-03-22T08:51:39.415Z,5.82
2023-03-22T08:54:28.095Z,5.50
2023-03-22T08:57:16.524Z,5.28
2023-03-22T09:00:06.791Z,5.03
2023-03-22T09:02:53.652Z,5.30
2023-03-22T09:05:40.994Z,5.40
2023-03-22T09:08:29.187Z,5.60
2023-03-22T09:11:17.951Z,5.45
2023-03-22T09:14:04.995Z,5.20
2023-03-22T09:16:51.870Z,5.15
2023-03-22T09:19:38.753Z,4.95
2023-03-22T09:22:25.576Z,5.25
2023-03-22T09:25:13.290Z,5.05
2023-03-22T09:28:00.239Z,5.30
2023-03-22T09:30:47.159Z,5.00
2023-03-22T09:33:35.604Z,5.13
2023-03-22T09:36:22.459Z,5.10
2023-03-22T09:39:10.115Z,5.10
2023-03-22T09:42:02.612Z,4.88
2023-03-22T09:44:51.137Z,5.07
2023-03-22T09:47:45.064Z,5.10
2023-03-22T09:50:32.810Z,4.95
2023-03-22T09:53:20.590Z,4.80
2023-03-22T09:56:17.954Z,4.53
2023-03-22T09:59:23.060Z,4.65
2023-03-22T10:02:39.773Z,4.20
2023-03-22T10:05:37.929Z,4.07
2023-03-22T10:08:42.109Z,3.80
2023-03-22T10:11:35.066Z,4.32
2023-03-22T10:14:28.284Z,3.78
2023-03-22T10:17:18.453Z,3.65
2023-03-22T10:20:17.477Z,4.20
2023-03-22T10:23:06.721Z,4.00
2023-03-22T10:25:53.954Z,4.10
2023-03-22T10:28:44.043Z,4.10
2023-03-22T10:31:32.108Z,3.70
2023-03-22T10:34:22.568Z,4.07
2023-03-22T10:37:15.968Z,3.65
2023-03-22T10:40:08.415Z,3.70
2023-03-22T10:43:00.085Z,3.75
2023-03-22T10:45:47.164Z,3.83
2023-03-22T10:48:42.592Z,3.38
2023-03-22T10:51:34.657Z,2.90
2023-03-22T10:54:21.951Z,2.92
2023-03-22T10:57:08.809Z,2.90
2023-03-22T10:59:57.181Z,2.90
2023-03-22T11:02:51.510Z,3.22
2023-03-22T11:05:38.632Z,2.53
2023-03-22T11:08:25.623Z,2.55
2023-03-22T11:11:18.283Z,2.53
2023-03-22T11:14:05.025Z,2.40
2023-03-22T11:16:58.513Z,2.72
2023-03-22T11:20:02.206Z,2.78
2023-03-22T11:22:49.466Z,2.72
2023-03-22T11:25:38.872Z,2.60
2023-03-22T11:28:35.444Z,2.40
2023-03-22T11:31:24.645Z,2.30
2023-03-22T11:34:17.952Z,2.20
2023-03-22T11:37:08.013Z,2.20
2023-03-22T11:40:00.279Z,2.20
2023-03-22T11:42:47.929Z,2.60
2023-03-22T11:45:37.504Z,2.38
2023-03-22T11:48:27.539Z,2.40
2023-03-22T11:51:18.025Z,1.95
2023-03-22T11:54:08.770Z,2.35
2023-03-22T11:56:59.073Z,2.13
2023-03-22T11:59:49.017Z,2.25
2023-03-22T12:02:41.747Z,2.20
2023-03-22T12:05:31.552Z,1.83
2023-03-22T12:08:42.824Z,2.00
2023-03-22T12:11:34.379Z,2.10
2023-03-22T12:14:33.355Z,1.80
2023-03-22T12:17:37.632Z,1.80
2023-03-22T12:20:30.563Z,1.83
2023-03-22T12:23:23.223Z,1.95
2023-03-22T12:26:10.395Z,1.80
2023-03-22T12:29:00.704Z,1.80
2023-03-22T12:32:09.842Z,1.67
2023-03-22T12:35:05.424Z,1.90
2023-03-22T12:38:11.182Z,1.60
2023-03-22T12:41:01.785Z,1.63
2023-03-22T12:43:53.514Z,1.63
2023-03-22T12:46:49.350Z,1.67
2023-03-22T12:49:40.505Z,1.70
2023-03-22T12:52:45.626Z,1.80
2023-03-22T12:55:36.085Z,1.60
2023-03-22T12:58:24.286Z,1.60
2023-03-22T13:01:12.965Z,1.60
2023-03-22T13:03:59.948Z,1.80
2023-03-22T13:06:47.780Z,1.50
2023-03-22T13:09:41.924Z,1.60
2023-03-22T13:12:31.718Z,1.67
2023-03-22T13:15:41.747Z,1.60
2023-03-22T13:18:37.639Z,1.50
2023-03-22T13:21:29.876Z,1.30
2023-03-22T13:24:16.676Z,1.50
2023-03-22T13:27:07.385Z,1.50
2023-03-22T13:29:57.950Z,1.27
2023-03-22T13:32:52.575Z,1.40
2023-03-22T13:35:54.282Z,1.48
2023-03-22T13:38:42.923Z,1.33
2023-03-22T13:44:31.115Z,1.30
2023-03-22T13:47:36.520Z,1.50
2023-03-22T13:50:28.472Z,1.70
2023-03-22T13:53:21.558Z,1.38
2023-03-22T13:56:12.569Z,1.30
2023-03-22T13:58:59.939Z,1.40
2023-03-22T14:01:51.567Z,1.45
2023-03-22T14:04:51.070Z,1.48
2023-03-22T14:07:47.211Z,1.30
2023-03-22T14:10:44.580Z,1.40
2023-03-22T14:13:46.499Z,1.10
2023-03-22T14:16:49.233Z,1.40
2023-03-22T14:19:36.344Z,1.20
